createdAt,value
2018-05-26T00:00:21.552Z,101700.38
2018-05-26T00:02:47.523Z,101703.12
2018-05-26T00:05:13.453Z,101705.39
2018-05-26T00:07:39.331Z,101702.76
2018-05-26T00:10:05.361Z,101699.72
2018-05-26T00:12:31.289Z,101699.64
2018-05-26T00:14:57.159Z,101703.95
2018-05-26T00:17:23.091Z,101705.50
2018-05-26T00:19:49.020Z,101705.70
2018-05-26T00:22:16.113Z,101712.72
2018-05-26T00:24:42.115Z,101710.31
2018-05-26T00:27:07.987Z,101704.38
2018-05-26T00:29:33.857Z,101705.53
2018-05-26T00:31:59.783Z,101705.02
2018-05-26T00:34:25.796Z,101704.05
2018-05-26T00:36:51.760Z,101700.12
2018-05-26T00:39:17.682Z,101696.75
2018-05-26T00:41:43.612Z,101692.05
2018-05-26T00:44:09.557Z,101693.52
2018-05-26T00:46:35.535Z,101688.86
2018-05-26T00:49:01.492Z,101688.05
2018-05-26T00:51:27.371Z,101692.16
2018-05-26T00:53:53.294Z,101694.09
2018-05-26T00:56:19.184Z,101697.34
2018-05-26T00:58:45.177Z,101703.25
2018-05-26T01:01:11.239Z,101700.95
2018-05-26T01:03:37.188Z,101704.20
2018-05-26T01:06:03.079Z,101711.86
2018-05-26T01:08:29.045Z,101711.09
2018-05-26T01:10:54.961Z,101710.34
2018-05-26T01:13:20.923Z,101708.22
2018-05-26T01:15:46.867Z,101704.73
2018-05-26T01:18:12.793Z,101707.05
2018-05-26T01:20:38.736Z,101706.27
2018-05-26T01:23:04.736Z,101704.18
2018-05-26T01:25:30.683Z,101697.75
2018-05-26T01:27:56.560Z,101692.97
2018-05-26T01:30:22.592Z,101690.80
2018-05-26T01:32:48.478Z,101697.57
2018-05-26T01:35:14.438Z,101689.70
2018-05-26T01:37:40.481Z,101687.59
2018-05-26T01:40:06.419Z,101690.22
2018-05-26T01:42:32.300Z,101694.17
2018-05-26T01:44:58.210Z,101687.64
2018-05-26T01:47:24.141Z,101692.56
2018-05-26T01:49:50.101Z,101692.70
2018-05-26T01:52:16.359Z,101685.78
2018-05-26T01:54:42.239Z,101692.06
2018-05-26T01:57:08.138Z,101685.53
2018-05-26T01:59:34.126Z,101684.25
2018-05-26T02:02:00.105Z,101682.14
2018-05-26T02:04:26.019Z,101676.53
2018-05-26T02:06:51.944Z,101678.36
2018-05-26T02:09:17.908Z,101681.47
2018-05-26T02:11:43.860Z,101678.54
2018-05-26T02:14:09.955Z,101686.44
2018-05-26T02:16:35.968Z,101687.30
2018-05-26T02:19:01.917Z,101697.94
2018-05-26T02:21:27.904Z,101698.39
2018-05-26T02:23:53.863Z,101694.77
2018-05-26T02:26:19.818Z,101685.58
2018-05-26T02:28:46.781Z,101690.42
2018-05-26T02:31:12.657Z,101688.75
2018-05-26T02:33:38.515Z,101684.02
2018-05-26T02:36:04.541Z,101690.59
2018-05-26T02:38:30.552Z,101688.10
2018-05-26T02:40:56.432Z,101688.96
2018-05-26T02:43:22.356Z,101689.42
2018-05-26T02:45:48.228Z,101688.55
2018-05-26T02:48:14.164Z,101699.16
2018-05-26T02:50:40.169Z,101689.14
2018-05-26T02:53:06.069Z,101701.52
2018-05-26T02:55:31.988Z,101701.28
2018-05-26T02:57:57.955Z,101699.91
2018-05-26T03:00:23.883Z,101698.34
2018-05-26T03:02:49.815Z,101698.78
2018-05-26T03:05:21.956Z,101697.09
2018-05-26T03:07:53.913Z,101696.55
2018-05-26T03:10:26.000Z,101708.97
2018-05-26T03:12:58.050Z,101707.42
2018-05-26T03:15:23.884Z,101706.11
2018-05-26T03:17:52.803Z,101705.22
2018-05-26T03:20:18.775Z,101713.67
2018-05-26T03:22:44.645Z,101716.75
2018-05-26T03:25:10.699Z,101711.48
2018-05-26T03:27:36.628Z,101713.66
2018-05-26T03:30:02.583Z,101728.59
2018-05-26T03:32:28.907Z,101725.05
2018-05-26T03:34:54.774Z,101730.70
2018-05-26T03:37:20.783Z,101731.08
2018-05-26T03:39:46.793Z,101731.54
2018-05-26T03:42:12.652Z,101730.66
2018-05-26T03:44:38.534Z,101729.70
2018-05-26T03:47:04.485Z,101732.36
2018-05-26T03:49:30.556Z,101729.70
2018-05-26T03:51:56.426Z,101731.89
2018-05-26T03:54:34.674Z,101726.14
2018-05-26T04:00:09.500Z,101728.03
2018-05-26T04:02:35.382Z,101729.80
2018-05-26T04:05:01.268Z,101735.05
2018-05-26T04:07:27.197Z,101735.11
2018-05-26T04:09:53.078Z,101739.11
2018-05-26T04:12:18.969Z,101744.25
2018-05-26T04:14:44.980Z,101749.09
2018-05-26T04:17:10.848Z,101746.84
2018-05-26T04:19:36.871Z,101754.14
2018-05-26T04:22:02.776Z,101743.44
2018-05-26T04:24:28.631Z,101748.20
2018-05-26T04:26:54.496Z,101743.67
2018-05-26T04:29:20.407Z,101751.84
2018-05-26T04:31:46.313Z,101751.73
2018-05-26T04:34:12.200Z,101755.45
2018-05-26T04:36:39.348Z,101758.27
2018-05-26T04:39:05.280Z,101763.42
2018-05-26T04:41:31.170Z,101765.85
2018-05-26T04:43:57.160Z,101764.77
2018-05-26T04:46:23.065Z,101762.77
2018-05-26T04:48:48.957Z,101768.42
2018-05-26T04:51:14.928Z,101774.41
2018-05-26T04:53:41.063Z,101772.87
2018-05-26T04:56:09.321Z,101767.27
2018-05-26T04:58:35.448Z,101766.05
2018-05-26T05:01:01.499Z,101772.37
2018-05-26T05:03:27.418Z,101768.81
2018-05-26T05:05:53.336Z,101766.22
2018-05-26T05:08:19.228Z,101777.96
2018-05-26T05:10:45.124Z,101776.41
2018-05-26T05:13:11.036Z,101777.38
2018-05-26T05:15:37.162Z,101780.14
2018-05-26T05:18:03.309Z,101784.03
2018-05-26T05:20:29.424Z,101791.77
2018-05-26T05:22:55.282Z,101789.76
2018-05-26T05:25:21.260Z,101785.11
2018-05-26T05:27:47.169Z,101791.52
2018-05-26T05:30:13.032Z,101794.02
2018-05-26T05:32:38.981Z,101794.35
2018-05-26T05:35:05.085Z,101793.58
2018-05-26T05:37:30.989Z,101796.47
2018-05-26T05:39:56.956Z,101798.81
2018-05-26T05:42:22.958Z,101802.55
2018-05-26T05:44:49.417Z,101802.09
2018-05-26T05:47:15.404Z,101806.02
2018-05-26T05:49:41.366Z,101815.29
2018-05-26T05:52:07.351Z,101813.30
2018-05-26T06:06:44.640Z,101809.22
2018-05-26T06:09:10.520Z,101814.41
2018-05-26T06:11:36.411Z,101814.25
2018-05-26T06:14:02.348Z,101810.55
2018-05-26T06:16:28.228Z,101817.22
2018-05-26T06:18:54.177Z,101823.98
2018-05-26T06:21:20.110Z,101820.01
2018-05-26T06:23:45.984Z,101817.48
2018-05-26T06:26:11.879Z,101811.33
2018-05-26T06:28:37.822Z,101814.77
2018-05-26T06:31:03.693Z,101818.88
2018-05-26T06:33:29.575Z,101815.12
2018-05-26T06:35:55.606Z,101819.13
2018-05-26T06:38:21.479Z,101822.27
2018-05-26T06:40:47.372Z,101826.83
2018-05-26T06:43:13.330Z,101824.18
2018-05-26T06:45:43.758Z,101824.11
2018-05-26T06:48:09.687Z,101820.42
2018-05-26T06:50:35.607Z,101820.52
2018-05-26T06:53:01.497Z,101812.53
2018-05-26T06:55:27.408Z,101806.83
2018-05-26T06:57:54.153Z,101813.98
2018-05-26T07:00:20.171Z,101812.39
2018-05-26T07:02:46.029Z,101811.51
2018-05-26T07:05:11.955Z,101807.27
2018-05-26T07:07:37.906Z,101808.62
2018-05-26T07:10:03.799Z,101805.51
2018-05-26T07:12:29.716Z,101809.95
2018-05-26T07:14:55.580Z,101808.47
2018-05-26T07:17:21.475Z,101804.42
2018-05-26T07:19:47.413Z,101804.11
2018-05-26T07:22:13.298Z,101803.54
2018-05-26T07:24:39.234Z,101799.64
2018-05-26T07:27:05.208Z,101804.25
2018-05-26T07:29:31.101Z,101796.33
2018-05-26T07:31:56.993Z,101796.52
2018-05-26T07:34:22.927Z,101797.86
2018-05-26T07:36:48.820Z,101801.45
2018-05-26T07:39:14.716Z,101806.77
2018-05-26T07:41:40.641Z,101800.54
2018-05-26T07:44:06.520Z,101807.34
2018-05-26T07:46:32.397Z,101793.45
2018-05-26T07:48:58.324Z,101795.97
2018-05-26T07:51:24.303Z,101801.55
2018-05-26T07:53:50.247Z,101804.37
2018-05-26T07:56:16.139Z,101806.81
2018-05-26T07:58:42.389Z,101804.11
2018-05-26T08:01:08.260Z,101805.69
2018-05-26T08:03:34.203Z,101806.61
2018-05-26T08:06:00.100Z,101798.91
2018-05-26T08:08:26.037Z,101800.18
2018-05-26T08:10:52.005Z,101803.22
2018-05-26T08:13:17.863Z,101807.23
2018-05-26T08:15:43.774Z,101803.18
2018-05-26T08:18:09.857Z,101801.81
2018-05-26T08:20:35.740Z,101803.48
2018-05-26T08:23:01.647Z,101807.08
2018-05-26T08:25:27.559Z,101802.05
2018-05-26T08:27:53.431Z,101800.93
2018-05-26T08:30:20.291Z,101805.04
2018-05-26T08:32:46.423Z,101808.20
2018-05-26T08:35:12.315Z,101803.89
2018-05-26T08:37:38.209Z,101811.17
2018-05-26T08:40:04.136Z,101806.04
2018-05-26T08:42:30.030Z,101809.44
2018-05-26T08:44:55.909Z,101809.02
2018-05-26T08:47:21.842Z,101809.34
2018-05-26T08:49:47.713Z,101817.22
2018-05-26T08:52:13.601Z,101812.77
2018-05-26T08:54:39.519Z,101813.55
2018-05-26T08:57:05.405Z,101814.33
2018-05-26T08:59:31.287Z,101819.36
2018-05-26T09:01:57.203Z,101810.41
2018-05-26T09:04:23.086Z,101818.93
2018-05-26T09:06:48.954Z,101816.09
2018-05-26T09:09:15.384Z,101819.52
2018-05-26T09:11:41.260Z,101816.19
2018-05-26T09:14:07.122Z,101818.09
2018-05-26T09:16:33.039Z,101825.34
2018-05-26T09:18:58.916Z,101823.06
2018-05-26T09:21:24.795Z,101827.03
2018-05-26T09:23:50.764Z,101822.69
2018-05-26T09:26:16.720Z,101818.08
2018-05-26T09:28:42.604Z,101819.92
2018-05-26T09:31:08.544Z,101818.59
2018-05-26T09:33:34.436Z,101817.33
2018-05-26T09:36:00.330Z,101809.05
2018-05-26T09:38:27.023Z,101808.42
2018-05-26T09:40:53.843Z,101805.00
2018-05-26T09:43:20.468Z,101804.31
2018-05-26T09:45:46.384Z,101804.34
2018-05-26T09:48:12.359Z,101794.30
2018-05-26T09:50:38.284Z,101795.25
2018-05-26T09:53:04.192Z,101792.23
2018-05-26T09:55:30.073Z,101794.47
2018-05-26T09:57:55.943Z,101792.99
2018-05-26T10:00:22.629Z,101790.59
2018-05-26T10:02:48.523Z,101783.77
2018-05-26T10:05:14.409Z,101778.34
2018-05-26T10:07:40.332Z,101780.16
2018-05-26T10:10:07.306Z,101778.23
2018-05-26T10:12:34.116Z,101775.02
2018-05-26T10:15:00.080Z,101774.89
2018-05-26T10:17:25.943Z,101772.97
2018-05-26T10:19:51.870Z,101774.20
2018-05-26T10:22:17.759Z,101775.98
2018-05-26T10:24:43.647Z,101778.08
2018-05-26T10:27:09.529Z,101770.12
2018-05-26T10:29:35.438Z,101775.43
2018-05-26T10:32:01.321Z,101773.88
2018-05-26T10:34:28.132Z,101780.98
2018-05-26T10:36:54.059Z,101779.49
2018-05-26T10:39:19.946Z,101774.02
2018-05-26T10:41:45.818Z,101779.31
2018-05-26T10:44:11.898Z,101776.80
2018-05-26T10:46:37.786Z,101772.85
2018-05-26T10:49:03.664Z,101768.85
2018-05-26T10:51:29.592Z,101757.86
2018-05-26T10:53:55.471Z,101766.35
2018-05-26T10:56:21.362Z,101760.44
2018-05-26T10:58:47.288Z,101759.55
2018-05-26T11:01:13.177Z,101756.05
2018-05-26T11:03:39.063Z,101755.42
2018-05-26T11:06:04.979Z,101755.19
2018-05-26T11:08:30.850Z,101750.56
2018-05-26T11:10:56.792Z,101752.92
2018-05-26T11:13:22.868Z,101752.53
2018-05-26T11:15:48.721Z,101756.53
2018-05-26T11:18:14.866Z,101749.77
2018-05-26T11:20:41.683Z,101747.60
2018-05-26T11:23:07.627Z,101754.26
2018-05-26T11:25:33.514Z,101760.60
2018-05-26T11:27:59.459Z,101762.02
2018-05-26T11:30:25.667Z,101762.70
2018-05-26T11:32:51.617Z,101759.70
2018-05-26T11:35:17.560Z,101757.14
2018-05-26T11:37:43.432Z,101760.23
2018-05-26T11:40:09.303Z,101753.80
2018-05-26T11:42:35.231Z,101751.29
2018-05-26T11:45:01.131Z,101750.14
2018-05-26T11:47:27.019Z,101749.72
2018-05-26T11:49:52.932Z,101747.20
2018-05-26T11:52:18.820Z,101750.67
2018-05-26T11:54:44.819Z,101745.64
2018-05-26T11:57:10.788Z,101751.42
2018-05-26T11:59:36.667Z,101745.97
2018-05-26T12:02:02.714Z,101742.31
2018-05-26T12:04:28.608Z,101746.42
2018-05-26T12:06:54.488Z,101742.95
2018-05-26T12:09:20.369Z,101736.80
2018-05-26T12:11:46.379Z,101743.20
2018-05-26T12:14:12.272Z,101738.55
2018-05-26T12:16:38.207Z,101739.55
2018-05-26T12:19:04.144Z,101741.09
2018-05-26T12:21:30.033Z,101736.70
2018-05-26T12:23:55.910Z,101732.20
2018-05-26T12:26:21.830Z,101734.79
2018-05-26T12:28:47.695Z,101733.09
2018-05-26T12:31:13.584Z,101725.17
2018-05-26T12:33:39.554Z,101719.03
2018-05-26T12:36:05.477Z,101735.25
2018-05-26T12:38:31.593Z,101713.17
2018-05-26T12:40:57.546Z,101718.80
2018-05-26T12:43:23.435Z,101722.02
2018-05-26T12:45:49.305Z,101715.81
2018-05-26T12:48:15.259Z,101717.44
2018-05-26T12:50:41.147Z,101716.58
2018-05-26T12:53:07.025Z,101710.09
2018-05-26T12:55:32.953Z,101701.30
2018-05-26T12:57:58.898Z,101695.63
2018-05-26T13:00:24.799Z,101697.58
2018-05-26T13:02:51.092Z,101695.79
2018-05-26T13:05:17.396Z,101686.41
2018-05-26T13:07:43.275Z,101678.84
2018-05-26T13:10:09.222Z,101682.16
2018-05-26T13:12:35.989Z,101679.17
2018-05-26T13:15:01.889Z,101675.16
2018-05-26T13:17:27.814Z,101669.41
2018-05-26T13:19:53.681Z,101670.70
2018-05-26T13:22:19.564Z,101671.88
2018-05-26T13:24:46.367Z,101674.20
2018-05-26T13:27:12.248Z,101678.40
2018-05-26T13:29:38.182Z,101682.73
2018-05-26T13:32:04.087Z,101677.20
2018-05-26T13:34:29.979Z,101674.55
2018-05-26T13:36:55.871Z,101671.02
2018-05-26T13:39:21.774Z,101668.83
2018-05-26T13:41:47.656Z,101668.66
2018-05-26T13:44:13.519Z,101671.30
2018-05-26T13:46:39.442Z,101660.25
2018-05-26T13:49:05.348Z,101656.92
2018-05-26T13:51:31.212Z,101663.95
2018-05-26T13:53:57.243Z,101660.47
2018-05-26T13:56:23.153Z,101658.55
2018-05-26T13:58:49.007Z,101653.75
2018-05-26T14:01:14.947Z,101642.69
2018-05-26T14:03:40.811Z,101640.13
2018-05-26T14:06:06.672Z,101644.38
2018-05-26T14:08:32.599Z,101640.64
2018-05-26T14:10:58.512Z,101641.09
2018-05-26T14:13:25.443Z,101637.81
2018-05-26T14:15:51.348Z,101634.37
2018-05-26T14:18:17.234Z,101637.63
2018-05-26T14:20:43.157Z,101641.77
2018-05-26T14:23:09.148Z,101641.00
2018-05-26T14:25:35.048Z,101639.52
2018-05-26T14:28:00.922Z,101634.25
2018-05-26T14:30:26.832Z,101640.52
2018-05-26T14:32:52.692Z,101646.84
2018-05-26T14:35:18.572Z,101637.45
2018-05-26T14:37:44.471Z,101638.03
2018-05-26T14:40:10.353Z,101642.00
2018-05-26T14:42:36.219Z,101636.61
2018-05-26T14:45:03.060Z,101647.78
2018-05-26T14:47:28.965Z,101640.12
2018-05-26T14:49:54.897Z,101640.36
2018-05-26T14:52:21.663Z,101645.54
2018-05-26T14:54:47.533Z,101650.22
2018-05-26T14:57:13.409Z,101658.27
2018-05-26T14:59:39.420Z,101665.36
2018-05-26T15:02:05.295Z,101658.91
2018-05-26T15:04:31.169Z,101652.81
2018-05-26T15:06:57.166Z,101655.33
2018-05-26T15:09:23.052Z,101656.70
2018-05-26T15:11:48.923Z,101649.66
2018-05-26T15:14:14.907Z,101656.92
2018-05-26T15:16:41.728Z,101649.58
2018-05-26T15:19:07.604Z,101652.30
2018-05-26T15:21:33.519Z,101658.65
2018-05-26T15:23:59.427Z,101656.59
2018-05-26T15:26:25.308Z,101658.14
2018-05-26T15:28:51.221Z,101649.78
2018-05-26T15:31:17.089Z,101649.22
2018-05-26T15:33:42.946Z,101652.34
2018-05-26T15:36:08.855Z,101652.34
2018-05-26T15:38:34.723Z,101649.64
2018-05-26T15:41:00.595Z,101652.64
2018-05-26T15:43:26.554Z,101654.73
2018-05-26T15:45:52.442Z,101649.89
2018-05-26T15:48:18.324Z,101649.40
2018-05-26T15:50:44.229Z,101642.73
2018-05-26T15:53:10.130Z,101645.53
2018-05-26T15:55:36.031Z,101640.11
2018-05-26T15:58:01.971Z,101638.23
2018-05-26T16:00:27.855Z,101646.56
2018-05-26T16:02:53.727Z,101645.05
2018-05-26T16:05:20.687Z,101640.29
2018-05-26T16:07:46.560Z,101641.58
2018-05-26T16:10:12.457Z,101641.01
2018-05-26T16:12:38.376Z,101641.75
2018-05-26T16:15:04.315Z,101643.32
2018-05-26T16:17:30.199Z,101639.56
2018-05-26T16:19:56.119Z,101638.90
2018-05-26T16:22:21.991Z,101636.63
2018-05-26T16:24:47.892Z,101639.66
2018-05-26T16:27:13.808Z,101637.23
2018-05-26T16:29:39.689Z,101641.81
2018-05-26T16:32:05.554Z,101643.06
2018-05-26T16:34:31.505Z,101642.52
2018-05-26T16:36:57.379Z,101642.98
2018-05-26T16:39:23.242Z,101639.36
2018-05-26T16:41:49.173Z,101643.55
2018-05-26T16:44:15.088Z,101643.55
2018-05-26T16:46:40.979Z,101643.40
2018-05-26T16:49:06.996Z,101636.20
2018-05-26T16:51:32.876Z,101638.95
2018-05-26T16:53:58.747Z,101642.09
2018-05-26T16:56:24.662Z,101640.84
2018-05-26T16:58:50.595Z,101642.52
2018-05-26T17:01:16.438Z,101643.27
2018-05-26T17:03:42.379Z,101643.53
2018-05-26T17:06:08.252Z,101647.41
2018-05-26T17:08:34.103Z,101640.11
2018-05-26T17:11:00.067Z,101647.41
2018-05-26T17:13:25.932Z,101642.48
2018-05-26T17:15:52.324Z,101645.32
2018-05-26T17:18:18.241Z,101649.80
2018-05-26T17:20:44.149Z,101657.17
2018-05-26T17:23:10.012Z,101654.20
2018-05-26T17:25:35.932Z,101650.64
2018-05-26T17:28:01.836Z,101653.23
2018-05-26T17:30:27.708Z,101662.52
2018-05-26T17:32:53.624Z,101654.75
2018-05-26T17:35:19.496Z,101652.63
2018-05-26T17:37:45.375Z,101648.33
2018-05-26T17:40:11.311Z,101643.59
2018-05-26T17:42:37.194Z,101653.81
2018-05-26T17:45:03.182Z,101654.81
2018-05-26T17:47:29.123Z,101658.83
2018-05-26T17:49:54.989Z,101662.58
2018-05-26T17:52:20.906Z,101655.58
2018-05-26T17:54:46.836Z,101657.90
2018-05-26T17:57:12.700Z,101660.30
2018-05-26T17:59:38.571Z,101657.51
2018-05-26T18:02:04.508Z,101671.81
2018-05-26T18:04:30.630Z,101672.64
2018-05-26T18:06:56.560Z,101672.12
2018-05-26T18:09:22.481Z,101664.97
2018-05-26T18:11:48.356Z,101674.94
2018-05-26T18:14:14.251Z,101676.52
2018-05-26T18:16:40.224Z,101680.55
2018-05-26T18:19:06.103Z,101680.59
2018-05-26T18:21:31.996Z,101689.46
2018-05-26T18:23:57.909Z,101686.42
2018-05-26T18:26:23.775Z,101689.34
2018-05-26T18:31:36.635Z,101684.23
2018-05-26T18:34:02.652Z,101686.59
2018-05-26T18:36:28.520Z,101682.56
2018-05-26T18:38:54.432Z,101677.44
2018-05-26T18:41:20.307Z,101687.91
2018-05-26T18:43:46.282Z,101680.03
2018-05-26T18:46:12.210Z,101683.30
2018-05-26T18:48:38.088Z,101687.36
2018-05-26T18:51:04.016Z,101690.38
2018-05-26T18:53:29.963Z,101696.25
2018-05-26T18:55:56.796Z,101690.94
2018-05-26T18:58:23.639Z,101701.00
2018-05-26T19:00:49.553Z,101704.17
2018-05-26T19:03:15.997Z,101705.27
2018-05-26T19:05:41.871Z,101710.49
2018-05-26T19:08:07.875Z,101709.62
2018-05-26T19:10:33.763Z,101712.38
2018-05-26T19:12:59.672Z,101714.89
2018-05-26T19:15:25.827Z,101720.56
2018-05-26T19:17:51.817Z,101715.66
2018-05-26T19:20:17.728Z,101724.31
2018-05-26T19:22:43.666Z,101728.47
2018-05-26T19:25:09.583Z,101730.18
2018-05-26T19:27:35.491Z,101737.80
2018-05-26T19:30:01.542Z,101739.97
2018-05-26T19:32:27.797Z,101734.25
2018-05-26T19:34:53.707Z,101742.59
2018-05-26T19:37:20.282Z,101742.58
2018-05-26T20:55:42.023Z,101722.32
2018-05-26T20:58:07.914Z,101715.58
2018-05-26T21:00:34.246Z,101722.06
2018-05-26T21:03:00.175Z,101727.20
2018-05-26T21:05:26.098Z,101731.36
2018-05-26T21:07:52.001Z,101728.17
2018-05-26T21:10:18.000Z,101730.14
2018-05-26T21:12:43.997Z,101733.98
2018-05-26T21:15:09.950Z,101745.20
2018-05-26T21:17:35.899Z,101739.64
2018-05-26T21:20:01.851Z,101739.92
2018-05-26T21:22:27.772Z,101740.70
2018-05-26T21:24:53.803Z,101747.46
2018-05-26T21:27:19.717Z,101741.31
2018-05-26T21:29:45.585Z,101747.28
2018-05-26T21:32:11.599Z,101744.48
2018-05-26T21:34:37.481Z,101743.84
2018-05-26T21:37:03.384Z,101743.27
2018-05-26T21:39:29.358Z,101748.37
2018-05-26T21:41:55.291Z,101742.73
2018-05-26T21:44:21.163Z,101743.93
2018-05-26T21:46:47.125Z,101740.50
2018-05-26T21:49:13.016Z,101731.89
2018-05-26T21:51:38.926Z,101736.53
2018-05-26T21:54:04.872Z,101739.03
2018-05-26T21:56:30.833Z,101735.23
2018-05-26T21:58:56.713Z,101732.78
2018-05-26T22:01:22.656Z,101732.97
2018-05-26T22:03:48.552Z,101739.34
2018-05-26T22:06:14.451Z,101738.61
2018-05-26T22:08:40.367Z,101732.49
2018-05-26T22:11:06.254Z,101728.14
2018-05-26T22:13:32.142Z,101726.51
2018-05-26T22:15:58.129Z,101731.58
2018-05-26T22:18:24.080Z,101739.34
2018-05-26T22:20:49.949Z,101737.74
2018-05-26T22:23:15.856Z,101740.98
2018-05-26T22:25:42.235Z,101741.14
2018-05-26T22:28:08.173Z,101739.98
2018-05-26T22:30:34.096Z,101740.30
2018-05-26T22:32:59.992Z,101733.42
2018-05-26T22:35:25.891Z,101730.03
2018-05-26T22:37:51.795Z,101730.23
2018-05-26T22:40:17.675Z,101732.53
2018-05-26T22:42:43.535Z,101727.72
2018-05-26T22:45:09.481Z,101729.31
2018-05-26T22:47:35.375Z,101729.53
2018-05-26T22:50:01.299Z,101733.37
2018-05-26T22:52:27.330Z,101734.38
2018-05-26T22:54:53.218Z,101733.56
2018-05-26T22:57:19.156Z,101733.78
2018-05-26T22:59:45.200Z,101732.91
2018-05-26T23:02:11.095Z,101738.77
2018-05-26T23:04:36.968Z,101737.25
2018-05-26T23:07:02.940Z,101730.99
2018-05-26T23:09:28.831Z,101736.66
2018-05-26T23:11:54.745Z,101726.81
2018-05-26T23:14:20.699Z,101729.41
2018-05-26T23:16:46.622Z,101725.37
2018-05-26T23:19:13.568Z,101728.92
2018-05-26T23:21:39.504Z,101730.19
2018-05-26T23:24:05.504Z,101727.09
2018-05-26T23:26:31.397Z,101719.53
2018-05-26T23:28:57.429Z,101721.23
2018-05-26T23:31:23.288Z,101724.41
2018-05-26T23:33:49.232Z,101723.10
2018-05-26T23:36:15.170Z,101726.24
2018-05-26T23:38:41.124Z,101717.95
2018-05-26T23:41:07.027Z,101725.22
2018-05-26T23:43:32.959Z,101716.01
2018-05-26T23:45:58.856Z,101725.77
2018-05-26T23:48:24.744Z,101725.37
2018-05-26T23:50:50.662Z,101723.98
2018-05-26T23:53:16.543Z,101727.98
2018-05-26T23:55:42.439Z,101720.50
2018-05-26T23:58:08.477Z,101712.58
